Terminal Aerodrome Forecast
Issued by NWS

Home | Current Version | Previous Version | Graphics & Text | Print | Product List | Glossary On
Versions: 1 2 3 4 5 6 7 8 9 10 11 12 13 14 15 16 17 18 19 20 21
000
FTUS43 KBIS 250527
TAFDIK
TAF
KDIK 250527Z 2506/2606 31028G39KT 5SM SHRA BR OVC008
     FM250800 31028G39KT 6SM SHRA BR OVC010
     FM251000 31024G34KT P6SM SHRA BKN035
     FM251200 30023G32KT P6SM SCT200
     FM260100 29011KT P6SM FEW250=

USA.gov is the U.S. government's official web portal to all federal, state and local government web resources and services.